TAP1438 LPPT-GMMN
Flight info
| Callsign | TAP1438 |
|---|---|
| Flight time | N/A |
| Altitude | 39000 |
| Route | DUZOP DCT AMSEL UR722 LAKAM |
| Aircraft | A320/M-SDE3FGHIRWY/LB1 |
Departure
| Time | 2026-05-05 22:41 |
|---|---|
| Airport | Lisbon Humberto Delgado Airport (LPPT) |
Arrival
| Time | N/A |
|---|---|
| Airport | Mohammed V International Airport (GMMN) |
| Time | Latitude | Longitude | Altitude | Speed | Heading |
|---|---|---|---|---|---|
| 2026-05-05 22:27 | 38.76860 | -9.13954 | 345 ft | 0 kts | 258° |
| 2026-05-05 22:31 | 38.76862 | -9.13943 | 346 ft | 4 kts | 258° |
| 2026-05-05 22:31 | 38.76868 | -9.13909 | 349 ft | 4 kts | 258° |
| 2026-05-05 22:31 | 38.76873 | -9.13876 | 354 ft | 3 kts | 258° |
| 2026-05-05 22:31 | 38.76879 | -9.13852 | 351 ft | 4 kts | 220° |
| 2026-05-05 22:32 | 38.76896 | -9.13845 | 356 ft | 1 kts | 168° |
| 2026-05-05 22:32 | 38.76886 | -9.13843 | 354 ft | 0 kts | 168° |
| 2026-05-05 22:35 | 38.76842 | -9.13831 | 352 ft | 12 kts | 168° |
| 2026-05-05 22:36 | 38.76754 | -9.13807 | 345 ft | 14 kts | 167° |
| 2026-05-05 22:36 | 38.76695 | -9.13823 | 351 ft | 7 kts | 228° |
| 2026-05-05 22:36 | 38.76662 | -9.13888 | 346 ft | 14 kts | 255° |
| 2026-05-05 22:36 | 38.76643 | -9.14016 | 354 ft | 15 kts | 255° |
| 2026-05-05 22:37 | 38.76578 | -9.14128 | 346 ft | 15 kts | 229° |
| 2026-05-05 22:37 | 38.76586 | -9.14225 | 340 ft | 10 kts | 296° |
| 2026-05-05 22:37 | 38.76606 | -9.14277 | 333 ft | 0 kts | 290° |
| 2026-05-05 22:38 | 38.76613 | -9.14300 | 334 ft | 5 kts | 290° |
| 2026-05-05 22:38 | 38.76647 | -9.14363 | 334 ft | 11 kts | 333° |
| 2026-05-05 22:39 | 38.76715 | -9.14351 | 337 ft | 7 kts | 21° |
| 2026-05-05 22:39 | 38.76717 | -9.14349 | 337 ft | 0 kts | 21° |
| 2026-05-05 22:40 | 38.76798 | -9.14308 | 340 ft | 46 kts | 22° |
| 2026-05-05 22:40 | 38.77325 | -9.14027 | 363 ft | 114 kts | 22° |
| 2026-05-05 22:41 | 38.78225 | -9.13564 | 463 ft | 156 kts | 17° |
| 2026-05-05 22:41 | 38.79187 | -9.13078 | 1281 ft | 145 kts | 18° |
| 2026-05-05 22:41 | 38.80118 | -9.12565 | 1999 ft | 151 kts | 23° |
| 2026-05-05 22:41 | 38.81088 | -9.11895 | 2541 ft | 164 kts | 25° |
| 2026-05-05 22:42 | 38.82132 | -9.11148 | 3037 ft | 182 kts | 26° |
| 2026-05-05 22:42 | 38.83289 | -9.10298 | 3597 ft | 198 kts | 27° |
| 2026-05-05 22:42 | 38.84492 | -9.09398 | 4419 ft | 202 kts | 27° |
| 2026-05-05 22:42 | 38.85703 | -9.08483 | 5257 ft | 207 kts | 28° |
| 2026-05-05 22:43 | 38.86905 | -9.07414 | 6057 ft | 215 kts | 42° |
| 2026-05-05 22:43 | 38.87789 | -9.05825 | 6843 ft | 225 kts | 64° |
| 2026-05-05 22:43 | 38.88148 | -9.03842 | 7627 ft | 234 kts | 87° |
| 2026-05-05 22:43 | 38.87867 | -9.01762 | 8422 ft | 242 kts | 111° |
| 2026-05-05 22:44 | 38.87012 | -8.99884 | 9247 ft | 247 kts | 129° |
| 2026-05-05 22:44 | 38.85760 | -8.98375 | 10077 ft | 250 kts | 148° |
| 2026-05-05 22:44 | 38.84184 | -8.97422 | 10841 ft | 252 kts | 167° |
| 2026-05-05 22:44 | 38.82453 | -8.97155 | 11613 ft | 251 kts | 187° |
| 2026-05-05 22:45 | 38.80754 | -8.97604 | 12408 ft | 249 kts | 206° |
| 2026-05-05 22:45 | 38.79150 | -8.98474 | 13241 ft | 251 kts | 207° |
| 2026-05-05 22:45 | 38.77534 | -8.99349 | 14041 ft | 253 kts | 207° |
| 2026-05-05 22:45 | 38.75907 | -9.00224 | 14792 ft | 255 kts | 206° |
| 2026-05-05 22:46 | 38.74262 | -9.01107 | 15532 ft | 258 kts | 207° |
| 2026-05-05 22:46 | 38.72597 | -9.02001 | 16260 ft | 260 kts | 206° |
| 2026-05-05 22:46 | 38.70921 | -9.02898 | 17000 ft | 263 kts | 206° |
| 2026-05-05 22:46 | 38.69223 | -9.03806 | 17729 ft | 266 kts | 207° |
| 2026-05-05 22:47 | 38.67509 | -9.04724 | 18442 ft | 269 kts | 206° |
| 2026-05-05 22:47 | 38.65776 | -9.05650 | 19085 ft | 271 kts | 207° |
| 2026-05-05 22:47 | 38.64031 | -9.06582 | 19742 ft | 273 kts | 207° |
| 2026-05-05 22:47 | 38.62276 | -9.07522 | 20399 ft | 274 kts | 207° |
| 2026-05-05 22:48 | 38.60510 | -9.08464 | 21050 ft | 276 kts | 207° |
| 2026-05-05 22:48 | 38.58733 | -9.09410 | 21697 ft | 278 kts | 207° |
| 2026-05-05 22:48 | 38.56942 | -9.10362 | 22337 ft | 280 kts | 207° |
| 2026-05-05 22:48 | 38.55157 | -9.11311 | 22979 ft | 282 kts | 207° |
| 2026-05-05 22:49 | 38.53340 | -9.12278 | 23611 ft | 284 kts | 207° |
| 2026-05-05 22:49 | 38.51512 | -9.13252 | 24152 ft | 285 kts | 207° |
| 2026-05-05 22:49 | 38.49676 | -9.14230 | 24707 ft | 286 kts | 208° |
| 2026-05-05 22:49 | 38.48434 | -9.14889 | 25081 ft | 287 kts | 208° |